createdAt,value
2022-09-07T04:06:55.433Z,7.82
2022-09-07T04:09:58.686Z,8.55
2022-09-07T04:13:01.313Z,7.75
2022-09-07T04:16:17.067Z,8.40
2022-09-07T04:19:20.176Z,8.27
2022-09-07T04:22:23.159Z,8.25
2022-09-07T04:25:25.959Z,10.18
2022-09-07T04:28:28.989Z,10.52
2022-09-07T04:31:33.921Z,11.48
2022-09-07T04:34:36.844Z,12.60
2022-09-07T04:37:39.913Z,12.55
2022-09-07T04:40:43.238Z,12.07
2022-09-07T04:43:46.876Z,11.90
2022-09-07T04:46:52.942Z,10.20
2022-09-07T04:49:55.646Z,10.55
2022-09-07T04:52:58.680Z,10.50
2022-09-07T04:56:01.544Z,9.93
2022-09-07T04:59:07.301Z,9.65
2022-09-07T05:02:10.094Z,9.95
2022-09-07T05:05:18.113Z,10.07
2022-09-07T05:08:20.838Z,9.70
2022-09-07T05:11:29.069Z,10.23
2022-09-07T05:14:32.457Z,10.02
2022-09-07T05:17:35.459Z,9.70
2022-09-07T05:20:38.057Z,9.85
2022-09-07T05:23:43.860Z,10.43
2022-09-07T05:26:46.458Z,9.75
2022-09-07T05:30:06.338Z,10.05
2022-09-07T05:33:11.185Z,9.50
2022-09-07T05:36:14.395Z,8.98
2022-09-07T05:39:18.308Z,9.27
2022-09-07T05:42:21.358Z,8.98
2022-09-07T05:45:24.152Z,9.10
2022-09-07T05:48:27.515Z,8.65
2022-09-07T05:51:30.460Z,9.95
2022-09-07T05:54:56.636Z,8.93
2022-09-07T05:58:10.355Z,8.65
2022-09-07T06:01:13.467Z,8.50
2022-09-07T06:04:18.090Z,8.48
2022-09-07T06:07:22.800Z,8.93
2022-09-07T06:13:45.042Z,8.23
2022-09-07T06:16:48.010Z,8.27
2022-09-07T06:19:50.789Z,8.82
2022-09-07T06:22:53.743Z,8.40
2022-09-07T06:25:56.550Z,7.75
2022-09-07T06:28:59.582Z,8.13
2022-09-07T06:35:25.977Z,7.12
2022-09-07T06:38:33.647Z,7.20
2022-09-07T06:45:05.435Z,7.43
2022-09-07T06:48:08.392Z,6.87
2022-09-07T06:51:19.658Z,7.22
2022-09-07T06:57:46.159Z,6.70
2022-09-07T07:00:49.270Z,6.78
2022-09-07T07:03:54.129Z,6.78
2022-09-07T07:51:12.125Z,6.65
2022-09-07T07:54:15.195Z,6.10
2022-09-07T07:57:19.061Z,6.10
2022-09-07T08:00:37.409Z,6.45
2022-09-07T08:03:49.750Z,6.03
2022-09-07T08:06:52.780Z,6.80
2022-09-07T08:09:55.774Z,6.12
2022-09-07T08:12:58.413Z,6.00
2022-09-07T08:16:05.956Z,6.37
2022-09-07T08:19:09.558Z,5.87
2022-09-07T08:22:13.029Z,6.65
2022-09-07T08:25:15.730Z,5.97
2022-09-07T08:28:22.899Z,5.90
2022-09-07T08:31:25.518Z,6.57
2022-09-07T08:34:28.528Z,6.45
2022-09-07T08:37:31.322Z,5.80
2022-09-07T08:40:44.206Z,6.82
2022-09-07T08:43:58.423Z,6.03
2022-09-07T08:47:21.962Z,6.72
2022-09-07T08:50:39.338Z,5.62
2022-09-07T08:53:47.027Z,6.55
2022-09-07T09:00:18.250Z,6.43
2022-09-07T09:03:29.045Z,6.12
2022-09-07T09:06:55.100Z,6.05
2022-09-07T09:10:33.588Z,6.20
2022-09-07T09:13:55.031Z,6.47
2022-09-07T09:17:09.254Z,6.28
2022-09-07T09:20:26.511Z,6.30
2022-09-07T09:23:40.200Z,6.12
2022-09-07T09:26:47.551Z,5.60
2022-09-07T09:30:18.061Z,7.03
2022-09-07T09:33:29.113Z,6.72
2022-09-07T09:36:34.447Z,7.75
2022-09-07T09:39:38.442Z,7.72
2022-09-07T09:42:41.413Z,8.05
2022-09-07T09:49:25.257Z,8.05
2022-09-07T13:23:25.200Z,7.90
2022-09-07T13:27:05.622Z,8.13
2022-09-07T13:30:31.346Z,8.07
2022-09-07T13:33:35.505Z,8.45
2022-09-07T13:36:45.323Z,8.95
2022-09-07T13:40:21.079Z,8.73
2022-09-07T13:43:25.053Z,9.15
2022-09-07T13:47:08.109Z,8.50
2022-09-07T13:50:39.743Z,8.43
2022-09-07T13:54:07.614Z,8.73
2022-09-07T13:57:31.205Z,8.27
2022-09-07T14:00:34.902Z,7.85
2022-09-07T14:03:52.076Z,7.93
2022-09-07T14:07:17.032Z,7.68
2022-09-07T14:10:26.257Z,8.40
2022-09-07T14:13:38.538Z,7.55
2022-09-07T14:16:44.449Z,7.75
2022-09-07T14:19:51.697Z,7.68
2022-09-07T14:22:54.706Z,7.50
2022-09-07T14:26:19.926Z,8.15
2022-09-07T14:29:25.890Z,8.43
2022-09-07T14:32:28.719Z,7.95
2022-09-07T14:35:38.587Z,8.73
2022-09-07T14:42:05.089Z,9.10
2022-09-07T14:45:28.466Z,8.38
2022-09-07T14:48:55.328Z,8.35
2022-09-07T14:52:07.528Z,8.18
2022-09-07T14:55:28.404Z,8.85
2022-09-07T14:58:32.489Z,7.95
2022-09-07T15:01:38.946Z,8.32
2022-09-07T15:04:41.881Z,8.88
2022-09-07T15:07:48.865Z,8.23
2022-09-07T15:14:26.259Z,8.82
2022-09-07T15:17:48.306Z,10.40
2022-09-07T15:20:51.350Z,9.05
2022-09-07T15:23:56.186Z,9.27
2022-09-07T15:27:03.164Z,8.68
2022-09-07T15:30:11.385Z,8.90
2022-09-07T15:33:14.639Z,9.13
2022-09-07T15:36:17.551Z,8.65
2022-09-07T15:39:25.047Z,9.05
2022-09-07T15:45:51.742Z,8.25
2022-09-07T15:48:57.979Z,9.27
2022-09-07T15:52:05.599Z,8.27
2022-09-07T15:55:09.361Z,8.35
2022-09-07T15:58:13.040Z,8.75
2022-09-07T16:04:39.013Z,9.00
2022-09-07T16:11:26.209Z,9.30
2022-09-07T16:14:29.272Z,8.95
2022-09-07T16:17:36.652Z,8.90
2022-09-07T16:20:42.071Z,9.57
2022-09-07T16:23:49.362Z,9.55
2022-09-07T16:26:54.039Z,9.48
2022-09-07T16:29:59.945Z,9.45
2022-09-07T16:33:02.804Z,10.00
2022-09-07T16:36:16.005Z,9.25
2022-09-07T16:39:23.676Z,9.95
2022-09-07T16:42:43.335Z,9.85
2022-09-07T16:49:11.283Z,9.45
2022-09-07T16:52:34.609Z,9.23
2022-09-07T16:55:37.558Z,9.02
2022-09-07T16:58:54.961Z,9.18
2022-09-07T17:02:15.992Z,9.60
2022-09-07T17:05:18.724Z,8.38
2022-09-07T17:08:22.381Z,8.95
2022-09-07T17:11:28.959Z,10.13
2022-09-07T17:14:36.838Z,9.00
2022-09-07T17:17:39.527Z,8.45
2022-09-07T17:20:42.868Z,8.85
2022-09-07T17:23:55.564Z,9.30
2022-09-07T17:26:59.479Z,9.15
2022-09-07T17:30:02.340Z,8.90
2022-09-07T17:33:06.793Z,8.75
2022-09-07T17:36:12.534Z,8.63
2022-09-07T17:39:17.558Z,7.95
2022-09-07T17:42:21.322Z,8.82
2022-09-07T17:45:24.733Z,8.63
2022-09-07T17:48:48.987Z,9.10
2022-09-07T17:51:51.891Z,9.02
2022-09-07T17:54:55.539Z,10.32
2022-09-07T17:58:04.553Z,9.32
2022-09-07T18:01:15.337Z,10.00
2022-09-07T18:04:18.418Z,10.68
2022-09-07T18:07:21.079Z,9.95
2022-09-07T18:10:24.845Z,10.80
2022-09-07T18:13:35.760Z,10.90
2022-09-07T18:16:39.508Z,11.25
2022-09-07T18:19:42.231Z,9.95
2022-09-07T18:22:46.200Z,10.13
2022-09-07T18:25:57.800Z,10.43
2022-09-07T18:29:27.397Z,10.85
2022-09-07T18:32:31.668Z,10.48
2022-09-07T18:35:34.677Z,10.20
2022-09-07T18:38:37.837Z,10.52
2022-09-07T18:41:42.081Z,9.75
2022-09-07T18:48:11.270Z,10.38
2022-09-07T18:51:15.179Z,10.95
2022-09-07T18:54:18.185Z,10.15
2022-09-07T18:57:20.902Z,10.43
2022-09-07T19:00:29.450Z,11.10
2022-09-07T19:03:33.259Z,10.45
2022-09-07T19:06:36.392Z,10.30
2022-09-07T19:09:59.127Z,11.15
2022-09-07T19:13:22.306Z,10.23
2022-09-07T19:16:45.216Z,10.77
2022-09-07T19:20:09.146Z,9.65
2022-09-07T19:23:12.026Z,9.93
2022-09-07T19:26:34.363Z,10.23
2022-09-07T19:29:41.543Z,10.18
2022-09-07T19:33:10.002Z,10.02
2022-09-07T19:36:34.132Z,9.02
